createdAt,value
2023-04-17T00:02:48.764Z,11.71
2023-04-17T00:05:54.152Z,11.74
2023-04-17T00:08:56.578Z,11.70
2023-04-17T00:11:59.383Z,11.73
2023-04-17T00:15:01.810Z,11.69
2023-04-17T00:18:04.573Z,11.70
2023-04-17T00:21:07.066Z,11.68
2023-04-17T00:24:09.667Z,11.59
2023-04-17T00:27:11.979Z,11.54
2023-04-17T00:30:14.793Z,11.54
2023-04-17T00:33:17.156Z,11.44
2023-04-17T00:36:19.783Z,11.43
2023-04-17T00:39:23.111Z,11.40
2023-04-17T00:42:25.749Z,11.34
2023-04-17T00:45:28.298Z,11.21
2023-04-17T00:48:31.473Z,11.22
2023-04-17T00:51:34.345Z,11.24
2023-04-17T00:54:37.355Z,11.16
2023-04-17T00:57:40.883Z,11.08
2023-04-17T01:00:43.781Z,11.05
2023-04-17T01:03:46.541Z,11.03
2023-04-17T01:06:49.346Z,10.95
2023-04-17T01:09:52.121Z,10.94
2023-04-17T01:13:04.663Z,11.05
2023-04-17T01:16:07.501Z,10.97
2023-04-17T01:19:12.325Z,11.02
2023-04-17T01:22:16.483Z,10.95
2023-04-17T01:25:19.654Z,11.01
2023-04-17T01:28:24.281Z,10.89
2023-04-17T01:31:29.016Z,10.79
2023-04-17T01:34:31.589Z,10.74
2023-04-17T01:37:34.250Z,10.79
2023-04-17T01:40:36.613Z,10.85
2023-04-17T01:43:40.406Z,10.73
2023-04-17T01:46:42.790Z,10.70
2023-04-17T01:49:45.698Z,10.75
2023-04-17T01:52:48.382Z,10.88
2023-04-17T01:55:52.298Z,10.87
2023-04-17T01:58:54.793Z,10.92
2023-04-17T02:01:57.730Z,10.96
2023-04-17T02:05:00.784Z,10.84
2023-04-17T02:08:03.181Z,10.85
2023-04-17T02:11:05.779Z,10.93
2023-04-17T02:14:08.154Z,10.99
2023-04-17T02:17:10.816Z,10.99
2023-04-17T02:20:14.108Z,11.08
2023-04-17T02:23:16.712Z,11.08
2023-04-17T02:26:19.404Z,11.04
2023-04-17T02:29:21.860Z,11.11
2023-04-17T02:32:24.651Z,11.14
2023-04-17T02:35:28.545Z,11.20
2023-04-17T02:38:31.768Z,11.19
2023-04-17T02:41:34.368Z,11.15
2023-04-17T02:44:38.767Z,11.29
2023-04-17T02:47:43.112Z,11.32
2023-04-17T02:50:46.240Z,11.29
2023-04-17T02:53:49.337Z,11.29
2023-04-17T02:56:54.978Z,11.19
2023-04-17T02:59:57.448Z,11.21
2023-04-17T03:03:01.071Z,11.18
2023-04-17T03:06:03.954Z,11.17
2023-04-17T03:09:06.736Z,11.17
2023-04-17T03:12:10.401Z,11.13
2023-04-17T03:15:13.076Z,11.11
2023-04-17T03:18:15.566Z,10.92
2023-04-17T03:21:18.208Z,10.97
2023-04-17T03:24:21.164Z,10.93
2023-04-17T03:27:24.735Z,10.97
2023-04-17T03:30:27.373Z,11.07
2023-04-17T03:33:30.345Z,11.09
2023-04-17T03:36:32.836Z,11.07
2023-04-17T03:39:35.709Z,11.07
2023-04-17T03:42:38.105Z,10.94
2023-04-17T03:45:40.916Z,11.02
2023-04-17T03:48:43.322Z,11.02
2023-04-17T03:51:46.453Z,10.88
2023-04-17T03:54:50.258Z,10.92
2023-04-17T03:57:53.009Z,10.83
2023-04-17T04:00:58.518Z,10.91
2023-04-17T04:04:02.020Z,10.97
2023-04-17T04:07:05.737Z,10.94
2023-04-17T04:10:09.513Z,10.98
2023-04-17T04:13:14.936Z,10.95
2023-04-17T04:16:18.731Z,10.92
2023-04-17T04:19:21.342Z,10.91
2023-04-17T04:22:24.334Z,10.93
2023-04-17T04:25:26.961Z,11.02
2023-04-17T04:28:31.903Z,11.09
2023-04-17T04:31:35.806Z,11.10
2023-04-17T04:34:39.193Z,11.11
2023-04-17T04:37:42.971Z,11.19
2023-04-17T04:40:52.271Z,11.16
2023-04-17T04:43:55.091Z,11.15
2023-04-17T04:46:58.205Z,11.13
2023-04-17T04:50:01.138Z,11.13
2023-04-17T04:53:04.052Z,11.15
2023-04-17T04:56:07.673Z,11.16
2023-04-17T04:59:11.520Z,11.18
2023-04-17T05:02:16.501Z,11.27
2023-04-17T05:05:19.500Z,11.38
2023-04-17T05:08:21.997Z,11.49
2023-04-17T05:11:26.130Z,11.59
2023-04-17T05:14:28.801Z,11.78
2023-04-17T05:17:31.766Z,11.99
2023-04-17T05:20:34.383Z,12.14
2023-04-17T05:23:37.178Z,12.34
2023-04-17T05:26:41.226Z,12.64
2023-04-17T05:29:44.623Z,12.72
2023-04-17T05:32:48.630Z,12.81
2023-04-17T05:35:54.079Z,13.00
2023-04-17T05:38:58.659Z,13.11
2023-04-17T05:42:01.578Z,13.17
2023-04-17T05:45:04.960Z,13.25
2023-04-17T05:48:08.328Z,13.33
2023-04-17T05:51:10.807Z,13.35
2023-04-17T05:54:13.820Z,13.54
2023-04-17T05:57:16.555Z,13.76
2023-04-17T06:00:22.714Z,13.94
2023-04-17T06:03:26.971Z,14.13
2023-04-17T06:06:31.516Z,14.06
2023-04-17T06:09:34.399Z,14.21
2023-04-17T06:12:40.509Z,14.32
2023-04-17T06:15:43.388Z,14.49
2023-04-17T06:18:46.196Z,14.63
2023-04-17T06:21:49.212Z,14.78
2023-04-17T06:24:51.689Z,14.84
2023-04-17T06:27:54.230Z,15.02
2023-04-17T06:30:57.300Z,15.34
2023-04-17T06:34:00.378Z,15.86
2023-04-17T06:37:04.009Z,15.85
2023-04-17T06:40:07.515Z,16.10
2023-04-17T06:43:10.255Z,15.67
2023-04-17T06:46:14.279Z,15.80
2023-04-17T06:49:16.660Z,16.05
2023-04-17T06:52:22.104Z,16.27
2023-04-17T06:55:24.521Z,16.28
2023-04-17T06:58:27.180Z,16.54
2023-04-17T07:01:31.429Z,16.26
2023-04-17T07:04:34.177Z,16.58
2023-04-17T07:07:36.597Z,16.87
2023-04-17T07:10:39.269Z,16.86
2023-04-17T07:13:41.525Z,17.28
2023-04-17T07:16:44.357Z,17.45
2023-04-17T07:19:46.873Z,17.27
2023-04-17T07:22:49.987Z,17.09
2023-04-17T07:25:52.523Z,17.31
2023-04-17T07:28:55.454Z,17.39
2023-04-17T07:31:58.247Z,18.32
2023-04-17T07:35:00.972Z,18.62
2023-04-17T07:38:04.411Z,19.04
2023-04-17T07:41:07.196Z,18.58
2023-04-17T07:44:09.641Z,18.70
2023-04-17T07:47:12.421Z,19.95
2023-04-17T07:50:15.069Z,20.78
2023-04-17T07:53:18.103Z,21.56
2023-04-17T07:56:20.667Z,22.62
2023-04-17T07:59:23.651Z,24.41
2023-04-17T08:02:26.726Z,24.70
2023-04-17T08:05:29.769Z,25.01
2023-04-17T08:08:32.782Z,24.89
2023-04-17T08:11:42.674Z,24.60
2023-04-17T08:14:52.223Z,24.25
2023-04-17T08:17:56.567Z,25.18
2023-04-17T08:20:59.059Z,25.54
2023-04-17T08:24:02.399Z,24.65
2023-04-17T08:27:05.285Z,25.36
2023-04-17T08:30:11.226Z,24.14
2023-04-17T08:33:16.987Z,23.93
2023-04-17T08:36:19.777Z,23.33
2023-04-17T08:39:22.264Z,23.33
2023-04-17T08:42:24.990Z,23.58
2023-04-17T08:45:27.561Z,23.31
2023-04-17T08:48:30.599Z,23.18
2023-04-17T08:51:32.992Z,23.01
2023-04-17T08:54:36.619Z,22.53
2023-04-17T08:57:57.829Z,22.03
2023-04-17T09:01:16.646Z,22.09
2023-04-17T09:04:48.707Z,21.42
2023-04-17T09:08:05.569Z,21.42
2023-04-17T09:11:16.544Z,21.42
2023-04-17T09:14:31.562Z,21.89
2023-04-17T09:17:34.760Z,22.14
2023-04-17T09:20:48.781Z,21.83
2023-04-17T09:23:55.527Z,21.59
2023-04-17T09:27:18.157Z,21.37
2023-04-17T09:30:20.723Z,21.00
2023-04-17T09:33:23.370Z,20.73
2023-04-17T09:36:27.519Z,20.66
2023-04-17T09:39:30.575Z,20.85
2023-04-17T09:42:32.877Z,20.95
2023-04-17T09:45:36.339Z,20.90
2023-04-17T09:48:39.843Z,21.12
2023-04-17T09:51:42.787Z,21.17
2023-04-17T09:54:47.376Z,21.01
2023-04-17T09:57:51.488Z,21.03
2023-04-17T10:00:54.333Z,20.91
2023-04-17T10:03:58.130Z,21.06
2023-04-17T10:07:00.710Z,20.69
2023-04-17T10:10:09.222Z,20.83
2023-04-17T10:13:12.610Z,21.27
2023-04-17T10:16:15.374Z,21.17
2023-04-17T10:19:24.190Z,21.13
2023-04-17T10:22:27.923Z,21.27
2023-04-17T10:25:31.947Z,21.61
2023-04-17T10:28:50.017Z,21.83
2023-04-17T10:32:11.244Z,22.10
2023-04-17T10:35:16.609Z,21.50
2023-04-17T10:38:32.751Z,21.30
2023-04-17T10:41:56.274Z,21.18
2023-04-17T10:45:01.605Z,20.73
2023-04-17T10:48:04.497Z,21.00
2023-04-17T10:51:27.259Z,21.03
2023-04-17T10:54:32.176Z,21.37
2023-04-17T10:57:53.214Z,21.47
2023-04-17T11:00:55.833Z,21.23
2023-04-17T11:04:02.018Z,20.70
2023-04-17T11:07:04.749Z,21.39
2023-04-17T11:10:08.049Z,20.93
2023-04-17T11:13:10.752Z,21.48
2023-04-17T11:16:13.864Z,21.41
2023-04-17T11:19:23.490Z,21.06
2023-04-17T11:22:28.332Z,21.16
2023-04-17T11:25:31.835Z,21.16
2023-04-17T11:28:36.108Z,20.75
2023-04-17T11:31:39.669Z,20.27
2023-04-17T11:34:42.532Z,20.64
2023-04-17T11:38:03.520Z,21.04
2023-04-17T11:41:09.027Z,21.98
2023-04-17T11:44:14.713Z,21.92
2023-04-17T11:47:19.683Z,21.99
2023-04-17T11:50:22.127Z,21.58
2023-04-17T11:53:24.958Z,21.27
2023-04-17T11:56:29.636Z,21.13
2023-04-17T11:59:33.059Z,21.12
2023-04-17T12:02:35.540Z,20.65
2023-04-17T12:05:38.249Z,20.59
2023-04-17T12:08:42.264Z,20.51
2023-04-17T12:11:45.031Z,20.43
2023-04-17T12:14:47.362Z,20.47
2023-04-17T12:17:50.063Z,20.45
2023-04-17T12:20:52.705Z,20.68
2023-04-17T12:23:55.343Z,20.33
2023-04-17T12:26:58.771Z,20.25
2023-04-17T12:30:01.407Z,20.65
2023-04-17T12:33:03.976Z,20.77
2023-04-17T12:36:06.963Z,21.00
2023-04-17T12:39:09.241Z,21.00
2023-04-17T12:42:12.161Z,20.90
2023-04-17T12:45:15.324Z,20.50
2023-04-17T12:48:18.025Z,20.70
2023-04-17T12:51:20.656Z,20.71
2023-04-17T12:54:23.368Z,20.82
2023-04-17T12:57:26.493Z,21.00
2023-04-17T13:00:29.205Z,20.95
2023-04-17T13:03:31.728Z,20.42
2023-04-17T13:06:34.467Z,20.63
2023-04-17T13:09:36.889Z,20.65
2023-04-17T13:12:42.224Z,20.51
2023-04-17T13:15:47.409Z,20.06
2023-04-17T13:18:50.068Z,19.79
2023-04-17T13:21:52.465Z,19.71
2023-04-17T13:24:55.289Z,19.50
2023-04-17T13:27:57.964Z,18.58
2023-04-17T13:31:00.671Z,18.65
2023-04-17T13:34:03.423Z,18.41
2023-04-17T13:37:07.284Z,17.91
2023-04-17T13:40:10.841Z,16.72
2023-04-17T13:43:13.488Z,15.47
2023-04-17T13:46:16.417Z,14.63
2023-04-17T13:49:20.414Z,14.43
2023-04-17T13:52:22.768Z,14.35
2023-04-17T13:55:25.506Z,14.45
2023-04-17T13:58:27.960Z,14.60
2023-04-17T14:01:30.711Z,14.95
2023-04-17T14:04:33.488Z,15.41
2023-04-17T14:07:35.914Z,15.82
2023-04-17T14:10:38.669Z,16.27
2023-04-17T14:13:41.068Z,16.52
2023-04-17T14:16:43.719Z,16.89
2023-04-17T14:19:46.080Z,17.15
2023-04-17T14:22:48.993Z,17.30
2023-04-17T14:25:51.385Z,17.28
2023-04-17T14:28:54.239Z,17.47
2023-04-17T14:31:56.533Z,17.62
2023-04-17T14:35:00.078Z,17.63
2023-04-17T14:38:04.997Z,17.60
2023-04-17T14:41:08.180Z,17.75
2023-04-17T14:44:10.931Z,17.46
2023-04-17T14:47:13.858Z,17.51
2023-04-17T14:50:16.314Z,17.43
2023-04-17T14:53:21.381Z,17.31
2023-04-17T14:56:24.954Z,17.38
2023-04-17T14:59:27.979Z,17.41
2023-04-17T15:02:38.085Z,17.50
2023-04-17T15:05:41.406Z,17.53
2023-04-17T15:08:44.002Z,17.72
2023-04-17T15:11:47.398Z,17.82
2023-04-17T15:14:49.746Z,17.88
2023-04-17T15:17:55.591Z,17.88
2023-04-17T15:20:58.196Z,17.78
2023-04-17T15:24:01.007Z,17.57
2023-04-17T15:27:03.395Z,17.45
2023-04-17T15:30:09.129Z,17.31
2023-04-17T15:33:12.395Z,17.07
2023-04-17T15:36:15.071Z,17.03
2023-04-17T15:39:17.554Z,16.94
2023-04-17T15:42:20.272Z,16.91
2023-04-17T15:45:22.751Z,16.91
2023-04-17T15:48:25.573Z,16.80
2023-04-17T15:51:28.437Z,16.87
2023-04-17T15:54:31.345Z,16.79
2023-04-17T15:57:33.664Z,16.85
2023-04-17T16:00:36.250Z,16.69
2023-04-17T16:03:39.021Z,16.61
2023-04-17T16:06:41.418Z,16.54
2023-04-17T16:09:48.068Z,16.57
2023-04-17T16:12:50.687Z,16.46
2023-04-17T16:15:53.429Z,16.51
2023-04-17T16:18:56.231Z,16.26
2023-04-17T16:21:59.941Z,16.26
2023-04-17T16:25:02.592Z,16.32
2023-04-17T16:28:05.416Z,16.36
2023-04-17T16:31:08.452Z,16.36
2023-04-17T16:34:12.470Z,16.36
2023-04-17T16:37:14.998Z,16.37
2023-04-17T16:40:18.163Z,16.44
2023-04-17T16:43:20.533Z,16.41
2023-04-17T16:46:35.495Z,16.26
2023-04-17T16:49:47.790Z,16.16
2023-04-17T16:52:50.540Z,16.08
2023-04-17T16:55:52.827Z,16.04
2023-04-17T16:58:55.537Z,15.95
2023-04-17T17:02:00.052Z,15.94
2023-04-17T17:05:04.396Z,15.86
2023-04-17T17:08:06.673Z,15.77
2023-04-17T17:11:09.323Z,15.76
2023-04-17T17:14:11.866Z,15.71
2023-04-17T17:17:14.444Z,15.73
2023-04-17T17:20:16.868Z,15.54
2023-04-17T17:23:19.573Z,15.63
2023-04-17T17:26:21.890Z,15.51
2023-04-17T17:29:24.502Z,15.34
2023-04-17T17:32:27.110Z,15.33
2023-04-17T17:35:29.802Z,15.24
2023-04-17T17:38:32.747Z,15.12
2023-04-17T17:41:35.490Z,15.12
2023-04-17T17:44:38.633Z,14.98
2023-04-17T17:47:41.384Z,14.94
2023-04-17T17:50:44.230Z,14.93
2023-04-17T17:53:46.829Z,14.84
2023-04-17T17:56:49.364Z,14.91
2023-04-17T17:59:52.166Z,14.89
2023-04-17T18:02:54.900Z,14.95
2023-04-17T18:05:57.665Z,14.81
2023-04-17T18:09:00.481Z,14.81
2023-04-17T18:12:05.784Z,14.81
2023-04-17T18:15:08.781Z,14.76
2023-04-17T18:18:11.457Z,14.81
2023-04-17T18:21:14.119Z,14.68
2023-04-17T18:24:16.769Z,14.71
2023-04-17T18:27:20.033Z,14.68
2023-04-17T18:30:22.766Z,14.61
2023-04-17T18:33:25.118Z,14.56
2023-04-17T18:36:27.912Z,14.50
2023-04-17T18:39:30.942Z,14.47
2023-04-17T18:42:34.195Z,14.57
2023-04-17T18:45:36.771Z,14.53
2023-04-17T18:48:39.578Z,14.49
2023-04-17T18:51:47.890Z,14.42
2023-04-17T18:54:50.629Z,14.49
2023-04-17T18:57:52.988Z,14.41
2023-04-17T19:00:55.640Z,14.29
2023-04-17T19:03:58.154Z,14.21
2023-04-17T19:07:02.760Z,14.09
2023-04-17T19:10:05.650Z,14.04
2023-04-17T19:13:09.851Z,13.94
2023-04-17T19:16:12.173Z,13.95
2023-04-17T19:19:15.526Z,13.96
2023-04-17T19:22:18.629Z,13.98
2023-04-17T19:25:21.584Z,13.96
2023-04-17T19:28:27.152Z,13.99
2023-04-17T19:31:30.914Z,13.90
2023-04-17T19:34:33.426Z,13.91
2023-04-17T19:37:36.201Z,13.96
2023-04-17T19:40:38.604Z,13.94
2023-04-17T19:43:42.505Z,13.83
2023-04-17T19:46:45.192Z,13.73
2023-04-17T19:49:48.753Z,13.84
2023-04-17T19:52:51.182Z,13.83
2023-04-17T19:55:53.881Z,13.80
2023-04-17T19:59:02.209Z,13.69
2023-04-17T20:02:04.960Z,13.75
2023-04-17T20:05:07.977Z,13.67
2023-04-17T20:08:10.741Z,13.60
2023-04-17T20:11:15.020Z,13.56
2023-04-17T20:14:19.552Z,13.66
2023-04-17T20:17:22.267Z,13.60
2023-04-17T20:20:24.709Z,13.66
2023-04-17T20:23:27.652Z,13.52
2023-04-17T20:26:29.992Z,13.47
2023-04-17T20:29:32.671Z,13.51
2023-04-17T20:32:35.350Z,13.43
2023-04-17T20:35:38.111Z,13.44
2023-04-17T20:38:40.607Z,13.41
2023-04-17T20:41:43.788Z,13.43
2023-04-17T20:44:46.160Z,13.44
2023-04-17T20:50:55.957Z,13.64
2023-04-17T20:53:58.554Z,13.71
2023-04-17T20:57:01.819Z,13.68
2023-04-17T21:00:05.295Z,13.67
2023-04-17T21:03:08.326Z,13.73
2023-04-17T21:06:11.017Z,13.63
2023-04-17T21:09:14.808Z,13.62
2023-04-17T21:12:17.451Z,13.59
2023-04-17T21:15:21.020Z,13.65
2023-04-17T21:18:23.643Z,13.50
2023-04-17T21:21:30.580Z,13.47
2023-04-17T21:24:33.385Z,13.41
2023-04-17T21:27:35.766Z,13.48
2023-04-17T21:30:38.388Z,13.47
2023-04-17T21:33:40.895Z,13.36
2023-04-17T21:36:43.571Z,13.36
2023-04-17T21:39:46.038Z,13.39
2023-04-17T21:42:48.655Z,13.35
2023-04-17T21:45:51.237Z,13.22
2023-04-17T21:48:54.275Z,13.13
2023-04-17T21:51:57.136Z,13.12
2023-04-17T21:55:05.025Z,13.19
2023-04-17T21:58:07.457Z,13.12
2023-04-17T22:01:10.070Z,13.02
2023-04-17T22:04:12.848Z,13.01
2023-04-17T22:07:15.658Z,13.05
2023-04-17T22:10:18.433Z,13.00
2023-04-17T22:13:20.992Z,12.93
2023-04-17T22:16:23.612Z,12.89
2023-04-17T22:19:26.101Z,12.83
2023-04-17T22:22:28.874Z,12.77
2023-04-17T22:25:31.198Z,12.79
2023-04-17T22:28:34.324Z,12.69
2023-04-17T22:31:37.504Z,12.62
2023-04-17T22:34:42.407Z,12.56
2023-04-17T22:37:45.003Z,12.52
2023-04-17T22:40:48.955Z,12.58
2023-04-17T22:43:51.527Z,12.51
2023-04-17T22:46:54.067Z,12.71
2023-04-17T22:49:56.731Z,12.59
2023-04-17T22:52:59.637Z,12.58
2023-04-17T22:56:03.509Z,12.51
2023-04-17T22:59:06.303Z,12.54
2023-04-17T23:02:08.940Z,12.59
2023-04-17T23:05:11.778Z,12.61
2023-04-17T23:08:14.130Z,12.67
2023-04-17T23:11:17.405Z,12.58
2023-04-17T23:14:19.879Z,12.62
2023-04-17T23:17:22.538Z,12.61
2023-04-17T23:20:25.137Z,12.57
2023-04-17T23:23:27.948Z,12.56
2023-04-17T23:26:30.222Z,12.59
2023-04-17T23:29:32.884Z,12.61
2023-04-17T23:32:35.259Z,12.60
2023-04-17T23:35:38.532Z,12.48
2023-04-17T23:38:40.811Z,12.44
2023-04-17T23:41:43.520Z,12.46
2023-04-17T23:44:46.523Z,12.36
2023-04-17T23:47:49.205Z,12.21
2023-04-17T23:50:52.081Z,12.04
2023-04-17T23:53:56.930Z,11.96
2023-04-17T23:57:02.193Z,11.97
